createdAt,value
2018-06-15T00:03:46.779Z,37.13
2018-06-15T00:08:49.813Z,36.30
2018-06-15T00:13:52.860Z,34.30
2018-06-15T00:18:55.854Z,44.40
2018-06-15T00:23:58.908Z,32.07
2018-06-15T00:29:02.043Z,34.83
2018-06-15T00:34:05.114Z,38.17
2018-06-15T00:39:10.741Z,36.17
2018-06-15T00:44:13.789Z,37.53
2018-06-15T00:49:16.847Z,40.33
2018-06-15T00:54:19.890Z,33.70
2018-06-15T00:59:22.953Z,38.23
2018-06-15T01:04:25.961Z,36.10
2018-06-15T01:09:29.017Z,36.50
2018-06-15T01:14:32.066Z,38.17
2018-06-15T01:19:35.985Z,36.67
2018-06-15T01:24:40.042Z,34.10
2018-06-15T01:29:43.102Z,35.17
2018-06-15T01:34:46.113Z,44.27
2018-06-15T01:39:49.175Z,44.10
2018-06-15T01:44:52.213Z,36.93
2018-06-15T01:49:55.185Z,41.67
2018-06-15T01:54:58.240Z,36.67
2018-06-15T02:00:01.274Z,48.17
2018-06-15T02:05:04.366Z,35.57
2018-06-15T02:10:07.437Z,40.50
2018-06-15T02:15:10.485Z,35.97
2018-06-15T02:20:13.557Z,39.03
2018-06-15T02:25:16.604Z,38.87
2018-06-15T02:30:19.643Z,39.70
2018-06-15T02:35:22.648Z,40.40
2018-06-15T02:40:25.765Z,35.03
2018-06-15T02:45:28.832Z,38.47
2018-06-15T02:50:31.844Z,44.47
2018-06-15T02:55:34.925Z,42.93
2018-06-15T03:00:37.999Z,37.90
2018-06-15T03:05:41.190Z,35.27
2018-06-15T03:10:44.279Z,37.53
2018-06-15T03:15:47.301Z,38.87
2018-06-15T03:20:50.363Z,38.80
2018-06-15T03:25:53.380Z,33.17
2018-06-15T03:30:56.478Z,47.27
2018-06-15T03:35:59.678Z,36.93
2018-06-15T03:41:02.733Z,37.43
2018-06-15T03:46:05.740Z,40.67
2018-06-15T03:51:08.798Z,39.63
2018-06-15T03:56:11.861Z,39.23
2018-06-15T04:01:14.854Z,40.23
2018-06-15T04:06:17.850Z,44.20
2018-06-15T04:11:20.834Z,40.90
2018-06-15T04:16:23.846Z,44.07
2018-06-15T04:21:26.841Z,44.27
2018-06-15T04:26:29.865Z,49.70
2018-06-15T04:31:32.925Z,46.33
2018-06-15T04:36:35.929Z,38.13
2018-06-15T04:41:39.038Z,38.10
2018-06-15T04:46:42.126Z,42.57
2018-06-15T04:51:45.118Z,39.30
2018-06-15T04:56:48.122Z,41.57
2018-06-15T05:01:51.134Z,40.40
2018-06-15T05:06:54.113Z,40.93
2018-06-15T05:11:57.072Z,34.87
2018-06-15T05:17:00.166Z,39.60
2018-06-15T05:22:03.158Z,34.87
2018-06-15T05:27:06.417Z,38.13
2018-06-15T05:32:09.401Z,33.47
2018-06-15T05:37:12.419Z,42.87
2018-06-15T05:42:15.437Z,34.63
2018-06-15T05:47:18.442Z,33.03
2018-06-15T05:52:21.450Z,44.17
2018-06-15T05:57:24.437Z,32.03
2018-06-15T06:02:27.438Z,29.37
2018-06-15T06:07:30.425Z,35.07
2018-06-15T06:12:33.421Z,33.77
2018-06-15T06:17:36.415Z,29.37
2018-06-15T06:22:39.597Z,33.87
2018-06-15T06:27:42.639Z,33.37
2018-06-15T06:32:45.691Z,38.30
2018-06-15T06:37:48.715Z,29.60
2018-06-15T06:42:51.690Z,31.40
2018-06-15T06:47:54.685Z,29.90
2018-06-15T06:52:57.726Z,23.70
2018-06-15T06:58:00.727Z,29.93
2018-06-15T07:03:03.732Z,26.63
2018-06-15T07:08:06.738Z,30.83
2018-06-15T07:13:09.720Z,27.17
2018-06-15T07:18:12.984Z,25.77
2018-06-15T07:23:15.993Z,30.00
2018-06-15T07:28:19.029Z,29.03
2018-06-15T07:33:22.087Z,24.47
2018-06-15T07:38:25.081Z,28.80
2018-06-15T07:43:28.061Z,26.10
2018-06-15T07:48:31.095Z,22.30
2018-06-15T07:53:34.125Z,32.03
2018-06-15T07:58:37.101Z,23.70
2018-06-15T08:03:43.611Z,25.60
2018-06-15T08:08:46.614Z,26.13
2018-06-15T08:13:49.607Z,24.50
2018-06-15T08:18:52.706Z,23.10
2018-06-15T08:23:55.844Z,16.80
2018-06-15T08:28:58.828Z,20.23
2018-06-15T08:34:01.861Z,21.40
2018-06-15T08:39:08.826Z,13.90
2018-06-15T08:44:11.846Z,19.50
2018-06-15T08:49:14.829Z,14.77
2018-06-15T08:54:17.874Z,19.47
2018-06-15T08:59:20.857Z,14.50
2018-06-15T09:04:23.937Z,17.63
2018-06-15T09:09:26.965Z,19.73
2018-06-15T09:14:30.008Z,15.20
2018-06-15T09:19:33.014Z,12.70
2018-06-15T09:24:36.018Z,17.67
2018-06-15T09:29:39.017Z,22.30
2018-06-15T09:34:42.023Z,12.90
2018-06-15T09:39:45.019Z,15.33
2018-06-15T09:44:48.009Z,13.67
2018-06-15T09:49:50.957Z,14.80
2018-06-15T09:54:53.993Z,19.77
2018-06-15T09:59:56.973Z,12.17
2018-06-15T10:05:00.035Z,13.23
2018-06-15T10:10:03.112Z,11.13
2018-06-15T10:15:06.105Z,10.90
2018-06-15T10:20:09.434Z,9.50
2018-06-15T10:25:12.463Z,12.83
2018-06-15T10:30:15.469Z,7.47
2018-06-15T10:35:18.486Z,9.43
2018-06-15T10:40:21.522Z,7.27
2018-06-15T10:45:24.522Z,6.93
2018-06-15T10:50:27.505Z,5.50
2018-06-15T10:55:30.510Z,12.30
2018-06-15T11:00:33.526Z,7.47
2018-06-15T11:05:36.534Z,11.63
2018-06-15T11:10:39.557Z,4.90
2018-06-15T11:15:42.643Z,5.40
2018-06-15T11:20:45.645Z,5.37
2018-06-15T11:25:48.677Z,5.40
2018-06-15T11:30:51.736Z,11.23
2018-06-15T11:35:54.747Z,4.43
2018-06-15T11:40:57.785Z,3.93
2018-06-15T11:46:00.750Z,8.70
2018-06-15T11:51:03.758Z,12.57
2018-06-15T11:56:06.786Z,5.90
2018-06-15T12:01:09.815Z,5.73
2018-06-15T12:06:12.833Z,9.10
2018-06-15T12:11:15.840Z,8.93
2018-06-15T12:16:18.833Z,4.87
2018-06-15T12:21:21.835Z,4.80
2018-06-15T12:26:25.029Z,6.30
2018-06-15T12:31:28.157Z,4.17
2018-06-15T12:36:31.166Z,7.60
2018-06-15T12:41:34.161Z,7.43
2018-06-15T12:46:37.177Z,4.27
2018-06-15T12:51:40.162Z,4.47
2018-06-15T12:56:43.177Z,3.67
2018-06-15T13:01:46.180Z,7.33
2018-06-15T13:06:49.174Z,8.00
2018-06-15T13:11:52.207Z,3.17
2018-06-15T13:16:55.198Z,5.87
2018-06-15T13:21:58.182Z,5.07
2018-06-15T13:27:01.346Z,8.60
2018-06-15T13:32:04.374Z,3.40
2018-06-15T13:37:07.402Z,4.53
2018-06-15T13:42:10.389Z,5.90
2018-06-15T13:47:13.401Z,4.40
2018-06-15T13:52:16.397Z,7.97
2018-06-15T13:57:19.383Z,8.33
2018-06-15T14:02:22.361Z,2.90
2018-06-15T14:07:25.562Z,5.70
2018-06-15T14:12:28.602Z,6.80
2018-06-15T14:17:31.608Z,6.40
2018-06-15T14:22:34.582Z,6.10
2018-06-15T14:27:37.590Z,3.60
2018-06-15T14:32:40.603Z,4.60
2018-06-15T14:37:43.570Z,4.63
2018-06-15T14:42:46.585Z,4.80
2018-06-15T14:47:49.633Z,4.30
2018-06-15T14:52:52.642Z,7.23
2018-06-15T14:57:55.625Z,4.57
2018-06-15T15:02:58.597Z,4.17
2018-06-15T15:08:02.524Z,8.60
2018-06-15T15:13:05.523Z,5.43
2018-06-15T15:18:09.213Z,24.90
2018-06-15T15:23:12.934Z,4.87
2018-06-15T15:28:16.039Z,5.57
2018-06-15T15:33:19.098Z,6.53
2018-06-15T15:38:22.179Z,7.47
2018-06-15T15:43:25.220Z,5.03
2018-06-15T15:48:28.226Z,5.50
2018-06-15T15:53:31.222Z,5.30
2018-06-15T15:58:34.304Z,10.17
2018-06-15T16:03:37.321Z,6.07
2018-06-15T16:08:40.310Z,5.93
2018-06-15T16:13:43.349Z,9.80
2018-06-15T16:18:48.289Z,8.50
2018-06-15T16:23:51.365Z,7.83
2018-06-15T16:28:54.394Z,6.57
2018-06-15T16:33:57.427Z,7.43
2018-06-15T16:39:00.434Z,7.07
2018-06-15T16:44:03.475Z,7.67
2018-06-15T16:49:06.559Z,6.03
2018-06-15T16:54:09.558Z,5.40
2018-06-15T16:59:12.642Z,11.20
2018-06-15T17:04:15.650Z,10.90
2018-06-15T17:09:18.654Z,9.40
2018-06-15T17:14:21.641Z,9.70
2018-06-15T17:19:24.741Z,7.40
2018-06-15T17:24:27.687Z,8.90
2018-06-15T17:29:30.753Z,6.90
2018-06-15T17:34:33.745Z,8.47
2018-06-15T17:39:37.326Z,6.80
2018-06-15T17:44:40.430Z,5.33
2018-06-15T17:49:43.410Z,5.63
2018-06-15T17:54:46.492Z,8.20
2018-06-15T17:59:49.550Z,6.40
2018-06-15T18:04:52.549Z,7.53
2018-06-15T18:09:55.621Z,9.20
2018-06-15T18:14:58.671Z,5.23
2018-06-15T18:20:01.718Z,5.87
2018-06-15T18:25:05.094Z,10.60
2018-06-15T18:30:08.264Z,6.77
2018-06-15T18:35:11.310Z,5.77
2018-06-15T18:40:14.301Z,6.83
2018-06-15T18:45:17.298Z,9.53
2018-06-15T18:50:20.416Z,5.40
2018-06-15T18:55:23.596Z,5.57
2018-06-15T19:00:26.739Z,6.50
2018-06-15T19:05:29.786Z,8.03
2018-06-15T19:10:32.814Z,8.10
2018-06-15T19:15:35.872Z,6.03
2018-06-15T19:20:38.909Z,7.20
2018-06-15T19:25:41.987Z,8.67
2018-06-15T19:30:45.059Z,6.33
2018-06-15T19:35:48.392Z,9.20
2018-06-15T19:40:51.406Z,6.53
2018-06-15T19:45:54.398Z,6.00
2018-06-15T19:50:57.385Z,8.30
2018-06-15T19:56:00.393Z,6.00
2018-06-15T20:01:04.633Z,6.80
2018-06-15T20:06:09.293Z,7.50
2018-06-15T20:11:13.676Z,7.60
2018-06-15T20:16:17.704Z,7.30
2018-06-15T20:21:21.966Z,9.90
2018-06-15T20:26:26.037Z,11.47
2018-06-15T20:31:30.094Z,13.00
2018-06-15T20:36:35.093Z,10.03
2018-06-15T20:41:39.776Z,8.83
2018-06-15T20:46:43.777Z,8.70
2018-06-15T20:51:48.136Z,11.57
2018-06-15T20:56:52.338Z,10.70
2018-06-15T21:01:55.745Z,10.93
2018-06-15T21:06:59.810Z,8.00
2018-06-15T21:12:03.940Z,9.70
2018-06-15T21:17:08.312Z,11.57
2018-06-15T21:22:12.371Z,9.37
2018-06-15T21:27:16.335Z,10.37
2018-06-15T21:32:19.926Z,8.33
2018-06-15T21:37:23.066Z,8.37
2018-06-15T21:42:27.698Z,15.10
2018-06-15T21:47:33.564Z,10.40
2018-06-15T21:52:37.126Z,9.90
2018-06-15T21:57:41.152Z,9.67
2018-06-15T22:02:45.710Z,8.40
2018-06-15T22:07:50.561Z,11.97
2018-06-15T22:12:54.831Z,9.23
2018-06-15T22:17:57.941Z,10.70
2018-06-15T22:23:00.994Z,9.40
2018-06-15T22:28:04.000Z,9.47
2018-06-15T22:33:07.070Z,12.03
2018-06-15T22:38:10.129Z,10.30
2018-06-15T22:43:13.151Z,8.83
2018-06-15T22:48:16.205Z,11.40
2018-06-15T22:53:19.201Z,15.20
2018-06-15T22:58:22.259Z,13.33
2018-06-15T23:03:25.285Z,11.37
2018-06-15T23:08:28.294Z,12.40
2018-06-15T23:13:31.330Z,12.90
2018-06-15T23:18:34.363Z,11.57
2018-06-15T23:23:37.368Z,10.80
2018-06-15T23:28:40.415Z,11.87
2018-06-15T23:33:43.423Z,13.33
2018-06-15T23:38:46.410Z,12.10
2018-06-15T23:43:49.441Z,10.33
2018-06-15T23:48:52.450Z,11.93
2018-06-15T23:53:55.489Z,11.40
2018-06-15T23:58:58.526Z,12.30
